Terminal Aerodrome Forecast
Issued by NWS

Home | Current Version | Previous Version | Text Only | Print | Product List | Glossary On
Versions: 1 2 3 4 5 6 7 8 9 10 11 12 13 14 15 16 17 18 19 20 21 22 23 24
000
FTUS41 KGYX 262324
TAFPSM
TAF
KPSM 262324Z 2700/2724 17005KT P6SM SCT120 BKN250
     FM271000 19005KT P6SM -SHRA SCT050 BKN080 OVC120
     FM271500 21006KT P6SM -SHRA BKN045 OVC060
     FM271800 23007KT P6SM SCT050 BKN090 BKN200=

USA.gov is the U.S. government's official web portal to all federal, state and local government web resources and services.